Time;durP1;ratioP1;P1;durP2;ratioP2;P2;SDS_P1;SDS_P2;PMS_P1;PMS_P2;Temp;Humidity;BMP_temperature;BMP_pressure;BME280_temperature;BME280_humidity;BME280_pressure;Samples;Min_cycle;Max_cycle;Signal;HPM_P1;HPM_P2
2021/04/11 00:01:19;;;;;;;8.85;4.68;;;;;;;;;;5095350;28;20099;-63
2021/04/11 00:03:45;;;;;;;6.63;4.60;;;;;;;;;;5096110;28;20491;-65
2021/04/11 00:06:11;;;;;;;7.72;5.05;;;;;;;;;;5095305;28;20036;-65
2021/04/11 00:08:37;;;;;;;7.78;5.10;;;;;;;;;;5095721;28;20028;-64
2021/04/11 00:11:04;;;;;;;9.63;5.38;;;;;;;;;;5096840;28;20020;-65
2021/04/11 00:13:32;;;;;;;7.57;5.22;;;;;;;;;;5095535;28;20016;-65
2021/04/11 00:15:58;;;;;;;13.88;5.93;;;;;;;;;;5095959;28;20024;-65
2021/04/11 00:18:24;;;;;;;9.73;5.35;;;;;;;;;;5095537;28;20023;-65
2021/04/11 00:20:50;;;;;;;7.13;4.65;;;;;;;;;;5095493;28;20036;-65
2021/04/11 00:23:17;;;;;;;7.50;4.10;;;;;;;;;;5095439;28;20028;-65
2021/04/11 00:25:44;;;;;;;8.07;4.35;;;;;;;;;;5098178;28;20056;-66
2021/04/11 00:28:11;;;;;;;10.13;4.40;;;;;;;;;;5096393;28;20040;-64
2021/04/11 00:30:37;;;;;;;5.93;4.18;;;;;;;;;;5096822;28;20032;-64
2021/04/11 00:33:04;;;;;;;4.35;3.95;;;;;;;;;;5095265;28;20059;-66
2021/04/11 00:35:30;;;;;;;6.70;4.07;;;;;;;;;;5095788;28;20043;-67
2021/04/11 00:37:57;;;;;;;5.18;3.78;;;;;;;;;;5094945;28;20035;-64
2021/04/11 00:40:29;;;;;;;5.47;3.70;;;;;;;;;;5094540;28;20024;-67
2021/04/11 00:42:58;;;;;;;5.45;3.97;;;;;;;;;;5094557;28;20498;-67
2021/04/11 00:45:24;;;;;;;5.28;3.90;;;;;;;;;;5079004;28;20060;-67
2021/04/11 00:47:51;;;;;;;5.35;3.65;;;;;;;;;;5094377;28;20020;-67
2021/04/11 00:50:18;;;;;;;4.50;3.70;;;;;;;;;;5098238;28;20103;-65
2021/04/11 00:52:44;;;;;;;5.40;3.65;;;;;;;;;;5094479;28;20034;-64
2021/04/11 00:55:11;;;;;;;5.80;3.70;;;;;;;;;;5097854;28;20017;-66
2021/04/11 00:57:38;;;;;;;4.97;3.20;;;;;;;;;;5096442;28;20058;-66
2021/04/11 01:00:05;;;;;;;6.72;4.00;;;;;;;;;;5096941;28;20024;-66
2021/04/11 01:02:32;;;;;;;3.78;3.28;;;;;;;;;;5094506;28;20030;-67
2021/04/11 01:04:58;;;;;;;7.22;3.33;;;;;;;;;;5094834;28;20028;-66
2021/04/11 01:07:25;;;;;;;4.57;3.45;;;;;;;;;;5096326;28;20085;-67
2021/04/11 01:09:51;;;;;;;6.78;4.78;;;;;;;;;;5094583;28;20028;-66
2021/04/11 01:12:18;;;;;;;7.25;4.07;;;;;;;;;;5095059;28;20107;-63
2021/04/11 01:14:45;;;;;;;4.78;3.83;;;;;;;;;;5101287;28;20057;-67
2021/04/11 01:17:15;;;;;;;6.28;3.83;;;;;;;;;;5093618;28;20028;-66
2021/04/11 01:19:43;;;;;;;4.72;3.70;;;;;;;;;;5094874;28;20124;-63
2021/04/11 01:22:27;;;;;;;4.80;3.85;;;;;;;;;;5095479;28;20106;-67
2021/04/11 01:24:54;;;;;;;6.65;3.35;;;;;;;;;;5089976;28;20062;-66
2021/04/11 01:27:22;;;;;;;10.32;4.72;;;;;;;;;;5090812;28;20085;-64
2021/04/11 01:29:49;;;;;;;6.32;3.55;;;;;;;;;;5095332;28;20546;-64
2021/04/11 01:32:16;;;;;;;7.07;3.90;;;;;;;;;;5093354;28;20449;-66
2021/04/11 01:34:45;;;;;;;5.95;3.75;;;;;;;;;;5094995;28;20081;-65
2021/04/11 01:37:13;;;;;;;5.90;3.85;;;;;;;;;;5093692;28;20039;-67
2021/04/11 01:39:42;;;;;;;4.57;3.42;;;;;;;;;;5093748;28;20024;-65
2021/04/11 01:42:08;;;;;;;5.90;4.03;;;;;;;;;;5094235;28;20039;-66
2021/04/11 01:44:36;;;;;;;5.45;3.40;;;;;;;;;;5093578;28;20028;-66
2021/04/11 01:47:03;;;;;;;5.32;4.10;;;;;;;;;;5093459;28;20501;-67
2021/04/11 01:49:29;;;;;;;6.18;3.63;;;;;;;;;;5093155;28;20387;-66
2021/04/11 01:52:00;;;;;;;6.40;3.70;;;;;;;;;;5093909;28;20020;-66
2021/04/11 01:54:29;;;;;;;5.38;3.88;;;;;;;;;;5092962;28;20559;-66
2021/04/11 01:56:55;;;;;;;4.20;3.40;;;;;;;;;;5093611;28;20466;-66
2021/04/11 01:59:26;;;;;;;6.28;3.90;;;;;;;;;;5093095;28;20024;-65
2021/04/11 02:01:52;;;;;;;5.43;3.30;;;;;;;;;;5073004;28;20056;-64
2021/04/11 02:04:19;;;;;;;3.58;3.10;;;;;;;;;;5081098;28;20530;-67
2021/04/11 02:06:49;;;;;;;5.05;3.53;;;;;;;;;;5113469;28;20032;-66
2021/04/11 02:09:17;;;;;;;6.20;3.67;;;;;;;;;;5093889;28;20020;-66
2021/04/11 02:11:45;;;;;;;4.70;3.25;;;;;;;;;;5093386;28;20028;-65
2021/04/11 02:14:11;;;;;;;5.47;3.78;;;;;;;;;;5092819;28;20032;-67
2021/04/11 02:16:37;;;;;;;8.88;3.45;;;;;;;;;;5092598;28;20104;-67
2021/04/11 02:19:11;;;;;;;7.10;3.35;;;;;;;;;;5092862;28;20027;-65
2021/04/11 02:21:38;;;;;;;5.20;3.17;;;;;;;;;;5072782;28;20427;-67
2021/04/11 02:24:06;;;;;;;4.05;3.10;;;;;;;;;;5072627;28;20029;-63
2021/04/11 02:26:33;;;;;;;6.18;3.42;;;;;;;;;;5091966;28;20406;-67
2021/04/11 02:29:01;;;;;;;4.15;2.75;;;;;;;;;;5093112;28;20031;-68
2021/04/11 02:31:27;;;;;;;3.65;3.03;;;;;;;;;;5092590;28;20031;-66
2021/04/11 02:33:55;;;;;;;5.18;2.80;;;;;;;;;;5074658;28;20028;-65
2021/04/11 02:36:22;;;;;;;6.50;3.03;;;;;;;;;;5092903;28;20052;-66
2021/04/11 02:38:49;;;;;;;3.60;2.78;;;;;;;;;;5093017;28;20542;-66
2021/04/11 02:41:15;;;;;;;6.63;3.15;;;;;;;;;;5093449;28;20475;-66
2021/04/11 02:43:42;;;;;;;4.78;3.55;;;;;;;;;;5074209;28;20480;-66
2021/04/11 02:46:08;;;;;;;4.18;3.22;;;;;;;;;;5092471;28;20028;-66
2021/04/11 02:48:35;;;;;;;6.20;3.50;;;;;;;;;;5092876;28;20363;-63
2021/04/11 02:51:02;;;;;;;5.88;3.70;;;;;;;;;;5092884;28;20024;-66
2021/04/11 02:53:30;;;;;;;6.57;3.78;;;;;;;;;;5092162;28;20032;-64
2021/04/11 02:55:57;;;;;;;5.25;3.20;;;;;;;;;;5092526;28;20032;-66
2021/04/11 02:58:23;;;;;;;5.78;3.38;;;;;;;;;;5092720;28;20046;-67
2021/04/11 03:00:50;;;;;;;4.18;2.72;;;;;;;;;;5092450;28;20102;-67
2021/04/11 03:03:17;;;;;;;4.05;2.97;;;;;;;;;;5092205;28;20032;-67
2021/04/11 03:05:43;;;;;;;4.78;3.00;;;;;;;;;;5092501;28;20044;-68
2021/04/11 03:08:11;;;;;;;6.97;2.65;;;;;;;;;;5091808;28;20535;-67
2021/04/11 03:10:48;;;;;;;4.57;3.15;;;;;;;;;;5092971;28;20081;-67
2021/04/11 03:13:15;;;;;;;4.13;2.72;;;;;;;;;;5092373;28;20028;-67
2021/04/11 03:15:41;;;;;;;3.60;2.50;;;;;;;;;;5092369;28;20028;-67
2021/04/11 03:18:08;;;;;;;5.40;3.10;;;;;;;;;;5092078;28;20050;-67
2021/04/11 03:20:36;;;;;;;3.65;2.42;;;;;;;;;;5092210;28;20471;-66
2021/04/11 03:23:02;;;;;;;3.88;2.88;;;;;;;;;;5092090;28;20032;-65
2021/04/11 03:25:30;;;;;;;6.55;2.90;;;;;;;;;;5092138;28;20517;-64
2021/04/11 03:28:02;;;;;;;4.22;2.80;;;;;;;;;;5091829;28;20040;-66
2021/04/11 03:30:31;;;;;;;3.42;2.50;;;;;;;;;;5092174;28;20506;-67
2021/04/11 03:33:02;;;;;;;3.88;2.90;;;;;;;;;;5095367;28;20028;-67
2021/04/11 03:35:30;;;;;;;6.88;2.80;;;;;;;;;;5096245;28;20038;-66
2021/04/11 03:37:58;;;;;;;4.45;2.90;;;;;;;;;;5095709;28;20035;-67
2021/04/11 03:40:26;;;;;;;6.32;3.05;;;;;;;;;;5096825;28;20050;-65
2021/04/11 03:42:55;;;;;;;4.05;2.67;;;;;;;;;;5096039;28;20020;-67
2021/04/11 03:45:21;;;;;;;4.00;2.70;;;;;;;;;;5096216;28;20028;-65
2021/04/11 03:47:55;;;;;;;6.60;3.10;;;;;;;;;;5096235;28;20035;-65
2021/04/11 03:50:25;;;;;;;4.82;3.20;;;;;;;;;;5096407;28;20039;-66
2021/04/11 03:52:54;;;;;;;3.92;2.92;;;;;;;;;;5097679;28;20024;-66
2021/04/11 03:55:22;;;;;;;4.10;2.70;;;;;;;;;;5095816;28;20052;-66
2021/04/11 03:57:57;;;;;;;5.35;2.78;;;;;;;;;;5096213;28;20069;-66
2021/04/11 04:00:23;;;;;;;4.18;2.60;;;;;;;;;;5095828;28;20024;-66
2021/04/11 04:02:51;;;;;;;5.45;2.90;;;;;;;;;;5095271;28;20042;-66
2021/04/11 04:05:20;;;;;;;4.45;2.88;;;;;;;;;;5095441;28;20024;-65
2021/04/11 04:07:49;;;;;;;5.40;3.05;;;;;;;;;;5095153;28;20028;-66
2021/04/11 04:10:16;;;;;;;6.80;3.65;;;;;;;;;;5096330;28;20085;-64
2021/04/11 04:12:51;;;;;;;4.00;2.88;;;;;;;;;;5096624;28;20024;-65
2021/04/11 04:15:35;;;;;;;9.55;3.53;;;;;;;;;;5095856;28;20020;-65
2021/04/11 04:18:07;;;;;;;3.38;2.80;;;;;;;;;;5095506;28;20032;-66
2021/04/11 04:20:40;;;;;;;5.60;2.88;;;;;;;;;;5095494;28;20565;-67
2021/04/11 04:23:09;;;;;;;4.93;3.05;;;;;;;;;;5095167;28;20023;-67
2021/04/11 04:25:50;;;;;;;6.78;3.28;;;;;;;;;;5096117;28;20046;-65
2021/04/11 04:28:35;;;;;;;4.45;2.85;;;;;;;;;;5094719;28;20081;-65
2021/04/11 04:31:02;;;;;;;5.57;3.72;;;;;;;;;;5096061;28;20024;-64
2021/04/11 04:33:47;;;;;;;5.40;3.28;;;;;;;;;;5094862;28;20052;-65
2021/04/11 04:36:19;;;;;;;5.60;3.10;;;;;;;;;;5095495;28;20108;-66
2021/04/11 04:39:01;;;;;;;5.05;2.95;;;;;;;;;;5094917;28;20031;-67
2021/04/11 04:41:38;;;;;;;10.80;3.35;;;;;;;;;;5094446;28;20044;-66
2021/04/11 04:44:04;;;;;;;4.55;3.08;;;;;;;;;;5093730;28;20094;-67
2021/04/11 04:46:42;;;;;;;5.57;3.20;;;;;;;;;;5094746;28;20020;-67
2021/04/11 04:49:24;;;;;;;5.20;3.30;;;;;;;;;;5094615;28;20081;-66
2021/04/11 04:52:02;;;;;;;3.83;3.20;;;;;;;;;;5094281;28;20031;-67
2021/04/11 04:54:37;;;;;;;4.90;3.10;;;;;;;;;;5094593;28;20020;-67
2021/04/11 04:57:09;;;;;;;5.53;3.15;;;;;;;;;;5095060;28;20103;-66
2021/04/11 04:59:42;;;;;;;4.55;3.25;;;;;;;;;;5077555;28;20111;-67
2021/04/11 05:02:11;;;;;;;5.78;3.45;;;;;;;;;;5094298;28;20110;-66
2021/04/11 05:04:38;;;;;;;4.97;3.30;;;;;;;;;;5094593;28;20047;-67
2021/04/11 05:07:08;;;;;;;4.63;2.92;;;;;;;;;;5095310;28;20024;-67
2021/04/11 05:09:45;;;;;;;9.40;3.50;;;;;;;;;;5077118;28;20020;-67
2021/04/11 05:12:15;;;;;;;4.68;3.13;;;;;;;;;;5094616;28;20565;-67
2021/04/11 05:14:41;;;;;;;6.07;3.42;;;;;;;;;;5095592;28;20024;-66
2021/04/11 05:17:14;;;;;;;7.28;3.42;;;;;;;;;;5094029;28;20107;-65
2021/04/11 05:19:42;;;;;;;4.63;2.80;;;;;;;;;;5097712;28;20397;-66
2021/04/11 05:22:26;;;;;;;5.93;3.50;;;;;;;;;;5094438;28;20024;-67
2021/04/11 05:25:15;;;;;;;5.95;3.50;;;;;;;;;;5103144;28;20106;-65
2021/04/11 05:27:44;;;;;;;6.55;3.78;;;;;;;;;;5091723;28;20042;-65
2021/04/11 05:30:31;;;;;;;7.68;3.90;;;;;;;;;;5097656;28;20028;-64
2021/04/11 05:32:57;;;;;;;6.45;3.42;;;;;;;;;;5094968;28;20028;-66
2021/04/11 05:35:24;;;;;;;6.10;3.15;;;;;;;;;;5093778;28;20024;-66
2021/04/11 05:38:08;;;;;;;8.05;4.45;;;;;;;;;;5096989;28;20030;-67
2021/04/11 05:40:37;;;;;;;7.03;3.47;;;;;;;;;;5093966;28;20020;-67
2021/04/11 05:43:08;;;;;;;5.03;3.50;;;;;;;;;;5075970;28;20382;-64
2021/04/11 05:45:38;;;;;;;7.00;3.67;;;;;;;;;;5094517;28;20016;-67
2021/04/11 05:48:24;;;;;;;4.88;4.18;;;;;;;;;;5094505;28;20028;-65
2021/04/11 05:51:02;;;;;;;7.78;3.75;;;;;;;;;;5095748;28;20073;-65
2021/04/11 05:53:31;;;;;;;4.90;3.47;;;;;;;;;;5094430;28;20020;-67
2021/04/11 05:56:20;;;;;;;10.43;4.00;;;;;;;;;;5093908;28;20024;-65
2021/04/11 05:58:55;;;;;;;6.03;3.60;;;;;;;;;;5089434;28;20085;-66
2021/04/11 06:01:24;;;;;;;7.35;4.68;;;;;;;;;;5094785;28;20024;-66
2021/04/11 06:03:58;;;;;;;4.35;3.20;;;;;;;;;;5093961;28;20081;-66
2021/04/11 06:06:31;;;;;;;5.82;3.50;;;;;;;;;;5093332;28;20020;-66
2021/04/11 06:09:16;;;;;;;9.05;4.63;;;;;;;;;;5095464;28;20016;-67
2021/04/11 06:11:45;;;;;;;7.47;3.95;;;;;;;;;;5095266;28;20035;-65
2021/04/11 06:14:17;;;;;;;8.88;3.75;;;;;;;;;;5093120;28;20028;-66
2021/04/11 06:16:47;;;;;;;7.07;4.85;;;;;;;;;;5079957;28;20020;-65
2021/04/11 06:19:13;;;;;;;7.32;4.22;;;;;;;;;;5090726;28;20032;-67
2021/04/11 06:21:58;;;;;;;6.65;3.53;;;;;;;;;;5084828;28;20032;-67
2021/04/11 06:24:39;;;;;;;8.32;3.90;;;;;;;;;;5084822;28;20028;-66
2021/04/11 06:27:05;;;;;;;7.07;3.42;;;;;;;;;;5084776;28;20077;-65
2021/04/11 06:29:42;;;;;;;7.00;3.65;;;;;;;;;;5093054;28;20047;-64
2021/04/11 06:32:11;;;;;;;7.45;3.58;;;;;;;;;;5104257;28;20529;-65
2021/04/11 06:34:37;;;;;;;7.80;4.10;;;;;;;;;;5111159;28;20064;-65
2021/04/11 06:37:05;;;;;;;7.43;3.70;;;;;;;;;;5093101;28;20036;-65
2021/04/11 06:39:36;;;;;;;4.35;3.08;;;;;;;;;;5093046;28;20035;-67
2021/04/11 06:42:17;;;;;;;5.05;3.65;;;;;;;;;;5092762;28;20105;-66
2021/04/11 06:44:49;;;;;;;11.18;3.72;;;;;;;;;;5074748;28;20031;-65
2021/04/11 06:47:25;;;;;;;7.97;4.88;;;;;;;;;;5102034;28;20028;-65
2021/04/11 06:50:05;;;;;;;8.85;4.05;;;;;;;;;;5099253;28;20028;-66
2021/04/11 06:52:34;;;;;;;5.75;3.58;;;;;;;;;;5091172;28;20576;-67
2021/04/11 06:55:20;;;;;;;9.30;3.97;;;;;;;;;;5109055;28;20039;-64
2021/04/11 06:57:58;;;;;;;6.63;3.90;;;;;;;;;;5086873;28;20027;-65
2021/04/11 07:00:32;;;;;;;8.85;3.55;;;;;;;;;;5108853;28;20059;-68
2021/04/11 07:03:17;;;;;;;6.80;3.37;;;;;;;;;;5108682;28;20486;-66
2021/04/11 07:05:50;;;;;;;5.05;3.55;;;;;;;;;;5094122;28;20103;-66
2021/04/11 07:08:43;;;;;;;9.50;4.50;;;;;;;;;;5101590;28;20498;-68
2021/04/11 07:11:28;;;;;;;6.28;3.63;;;;;;;;;;5079045;28;20031;-66
2021/04/11 07:13:54;;;;;;;6.72;3.38;;;;;;;;;;5085098;28;20024;-64
2021/04/11 07:16:20;;;;;;;6.63;3.80;;;;;;;;;;5098540;28;20095;-64
2021/04/11 07:18:46;;;;;;;5.80;3.30;;;;;;;;;;5096741;28;20031;-64
2021/04/11 07:21:30;;;;;;;6.38;3.17;;;;;;;;;;5105756;28;20027;-67
2021/04/11 07:23:56;;;;;;;7.80;3.90;;;;;;;;;;5082971;28;20024;-64
2021/04/11 07:26:22;;;;;;;5.13;3.70;;;;;;;;;;5098409;28;20044;-65
2021/04/11 07:28:54;;;;;;;5.55;3.45;;;;;;;;;;5096741;28;20028;-66
2021/04/11 07:31:40;;;;;;;6.00;3.38;;;;;;;;;;5097281;28;20056;-66
2021/04/11 07:34:15;;;;;;;6.97;4.20;;;;;;;;;;5102639;28;20111;-65
2021/04/11 07:36:44;;;;;;;5.30;2.75;;;;;;;;;;5097726;28;20229;-65
2021/04/11 07:39:21;;;;;;;9.32;4.03;;;;;;;;;;5095924;28;20076;-68
2021/04/11 07:41:57;;;;;;;9.13;3.50;;;;;;;;;;5102978;28;20089;-67
2021/04/11 07:44:30;;;;;;;3.85;2.80;;;;;;;;;;5098896;28;20055;-65
2021/04/11 07:47:08;;;;;;;5.15;3.33;;;;;;;;;;5092820;28;20032;-67
2021/04/11 07:49:53;;;;;;;7.22;3.60;;;;;;;;;;5096624;28;20028;-66
2021/04/11 07:52:44;;;;;;;6.18;3.45;;;;;;;;;;5096530;28;20020;-64
2021/04/11 07:55:10;;;;;;;8.50;3.65;;;;;;;;;;5095957;28;20016;-64
2021/04/11 07:57:55;;;;;;;8.48;3.72;;;;;;;;;;5097313;28;20036;-64
2021/04/11 08:00:40;;;;;;;8.35;3.63;;;;;;;;;;5100721;28;20385;-69
2021/04/11 08:03:06;;;;;;;5.70;3.03;;;;;;;;;;5117504;28;20032;-68
2021/04/11 08:05:40;;;;;;;6.20;2.95;;;;;;;;;;5113937;28;20108;-65
2021/04/11 08:08:10;;;;;;;6.60;3.00;;;;;;;;;;5116574;28;20086;-66
2021/04/11 08:10:39;;;;;;;3.90;3.25;;;;;;;;;;5110722;28;20019;-68
2021/04/11 08:13:10;;;;;;;4.85;2.58;;;;;;;;;;5115887;28;20049;-66
2021/04/11 08:15:55;;;;;;;3.50;2.92;;;;;;;;;;5089216;28;20025;-68
2021/04/11 08:18:21;;;;;;;5.53;2.70;;;;;;;;;;5088849;28;20020;-68
2021/04/11 08:21:09;;;;;;;5.47;2.85;;;;;;;;;;5095933;28;20028;-64
2021/04/11 08:23:50;;;;;;;4.22;2.25;;;;;;;;;;5095001;28;20024;-65
2021/04/11 08:26:23;;;;;;;8.93;2.97;;;;;;;;;;5095931;28;20047;-67
2021/04/11 08:29:08;;;;;;;4.88;4.28;;;;;;;;;;5107220;28;20425;-69
2021/04/11 08:31:52;;;;;;;4.05;2.50;;;;;;;;;;5103997;28;20042;-67
2021/04/11 08:34:27;;;;;;;4.90;2.70;;;;;;;;;;5092119;28;20058;-68
2021/04/11 08:36:59;;;;;;;4.10;2.85;;;;;;;;;;5095047;28;20016;-67
2021/04/11 08:39:44;;;;;;;4.18;2.25;;;;;;;;;;5094938;28;20093;-64
2021/04/11 08:42:10;;;;;;;3.83;2.28;;;;;;;;;;5094515;28;20027;-66
2021/04/11 08:44:47;;;;;;;4.93;2.67;;;;;;;;;;5102686;28;20062;-67
2021/04/11 08:47:23;;;;;;;6.63;2.70;;;;;;;;;;5091353;28;20434;-67
2021/04/11 08:49:56;;;;;;;7.43;2.80;;;;;;;;;;5092229;28;20020;-66
2021/04/11 08:52:23;;;;;;;3.10;2.17;;;;;;;;;;5099456;28;20012;-67
2021/04/11 08:54:49;;;;;;;2.92;2.05;;;;;;;;;;5093830;28;20490;-67
2021/04/11 08:57:21;;;;;;;3.03;2.08;;;;;;;;;;5095650;28;20032;-65
2021/04/11 08:59:50;;;;;;;4.32;1.70;;;;;;;;;;5095518;28;20043;-65
2021/04/11 09:02:29;;;;;;;4.82;3.08;;;;;;;;;;5095524;28;20032;-66
2021/04/11 09:05:14;;;;;;;2.85;2.10;;;;;;;;;;5096521;28;20035;-64
2021/04/11 09:07:49;;;;;;;3.03;2.40;;;;;;;;;;5094774;28;20029;-64
2021/04/11 09:10:23;;;;;;;3.60;3.30;;;;;;;;;;5086583;28;20042;-64
2021/04/11 09:13:01;;;;;;;4.63;1.92;;;;;;;;;;5095693;28;20069;-64
2021/04/11 09:15:42;;;;;;;4.07;2.00;;;;;;;;;;5093695;28;20537;-64
2021/04/11 09:18:21;;;;;;;5.07;2.30;;;;;;;;;;5095697;28;20027;-63
2021/04/11 09:21:06;;;;;;;3.55;2.17;;;;;;;;;;5076750;28;20501;-65
2021/04/11 09:23:35;;;;;;;2.70;2.00;;;;;;;;;;5094667;28;20035;-64
2021/04/11 09:26:20;;;;;;;3.47;2.22;;;;;;;;;;5101065;28;20067;-65
2021/04/11 09:28:53;;;;;;;5.07;2.33;;;;;;;;;;5075280;28;20078;-66
2021/04/11 09:31:28;;;;;;;3.80;2.00;;;;;;;;;;5109649;28;20037;-64
2021/04/11 09:34:04;;;;;;;3.35;1.90;;;;;;;;;;5108169;28;20012;-65
2021/04/11 09:36:47;;;;;;;3.47;2.28;;;;;;;;;;5095752;28;20382;-65
2021/04/11 09:39:31;;;;;;;3.97;1.60;;;;;;;;;;5094561;28;20047;-62
2021/04/11 09:42:03;;;;;;;3.38;1.90;;;;;;;;;;5093158;28;20024;-67
2021/04/11 09:44:36;;;;;;;2.25;1.95;;;;;;;;;;5092937;28;20107;-64
2021/04/11 09:47:08;;;;;;;2.95;2.00;;;;;;;;;;5097032;28;20051;-66
2021/04/11 09:49:37;;;;;;;5.57;1.92;;;;;;;;;;5114333;28;20019;-66
2021/04/11 09:52:09;;;;;;;3.08;1.83;;;;;;;;;;5103589;28;20020;-68
2021/04/11 09:54:38;;;;;;;2.35;1.90;;;;;;;;;;5093078;28;20028;-67
2021/04/11 09:57:11;;;;;;;5.57;1.83;;;;;;;;;;5098336;28;20379;-64
2021/04/11 09:59:40;;;;;;;3.40;2.10;;;;;;;;;;5102470;28;20026;-67
2021/04/11 10:02:24;;;;;;;2.85;1.55;;;;;;;;;;5093075;28;20032;-67
2021/04/11 10:05:11;;;;;;;3.88;2.40;;;;;;;;;;5089562;28;20268;-65
2021/04/11 10:07:37;;;;;;;3.00;2.22;;;;;;;;;;5077273;28;20031;-66
2021/04/11 10:10:25;;;;;;;3.38;2.33;;;;;;;;;;5093575;28;20024;-66
2021/04/11 10:13:10;;;;;;;4.20;3.22;;;;;;;;;;5092249;28;20060;-66
2021/04/11 10:15:54;;;;;;;2.28;1.75;;;;;;;;;;5094369;28;20047;-64
2021/04/11 10:18:26;;;;;;;2.83;2.25;;;;;;;;;;5107241;28;20219;-65
2021/04/11 10:21:07;;;;;;;2.92;1.98;;;;;;;;;;5095135;28;20118;-63
2021/04/11 10:23:40;;;;;;;3.40;1.95;;;;;;;;;;5086056;28;20423;-64
2021/04/11 10:26:22;;;;;;;4.90;1.73;;;;;;;;;;5074792;28;20040;-65
2021/04/11 10:28:55;;;;;;;4.90;2.55;;;;;;;;;;5095509;28;20032;-63
2021/04/11 10:31:41;;;;;;;2.95;1.83;;;;;;;;;;5094758;28;20110;-64
2021/04/11 10:34:11;;;;;;;3.00;1.90;;;;;;;;;;5095456;28;20020;-66
2021/04/11 10:36:50;;;;;;;2.33;1.90;;;;;;;;;;5092446;28;20045;-67
2021/04/11 10:39:16;;;;;;;3.03;1.90;;;;;;;;;;5082144;28;20050;-67
2021/04/11 10:41:51;;;;;;;3.47;2.10;;;;;;;;;;5092541;28;20081;-66
2021/04/11 10:44:33;;;;;;;3.28;2.00;;;;;;;;;;5091783;28;20020;-66
2021/04/11 10:47:06;;;;;;;2.00;1.70;;;;;;;;;;5093712;28;20436;-65
2021/04/11 10:49:41;;;;;;;3.95;2.03;;;;;;;;;;5106729;28;20072;-67
2021/04/11 10:52:11;;;;;;;4.53;2.70;;;;;;;;;;5089372;28;20064;-67
2021/04/11 10:54:44;;;;;;;2.92;1.90;;;;;;;;;;5092236;28;20487;-66
2021/04/11 10:57:29;;;;;;;2.33;1.83;;;;;;;;;;5095909;28;20049;-66
2021/04/11 10:59:56;;;;;;;1.65;1.55;;;;;;;;;;5092982;28;20542;-63
2021/04/11 11:02:45;;;;;;;2.30;1.70;;;;;;;;;;5074088;28;20115;-64
2021/04/11 11:05:19;;;;;;;3.33;1.90;;;;;;;;;;5094559;28;20039;-66
2021/04/11 11:07:45;;;;;;;3.40;2.00;;;;;;;;;;5108623;28;20149;-66
2021/04/11 11:10:19;;;;;;;3.38;1.90;;;;;;;;;;5093322;28;20024;-66
2021/04/11 11:12:48;;;;;;;1.77;1.67;;;;;;;;;;5094522;28;20024;-66
2021/04/11 11:15:14;;;;;;;4.15;2.20;;;;;;;;;;5094300;28;20032;-66
2021/04/11 11:18:02;;;;;;;4.70;1.95;;;;;;;;;;5100073;28;20059;-65
2021/04/11 11:20:47;;;;;;;1.80;1.65;;;;;;;;;;5105210;28;20028;-65
2021/04/11 11:23:28;;;;;;;3.78;2.47;;;;;;;;;;5091476;28;20062;-64
2021/04/11 11:26:12;;;;;;;3.47;1.95;;;;;;;;;;5093377;28;20134;-64
2021/04/11 11:28:51;;;;;;;1.90;1.60;;;;;;;;;;5083576;28;20069;-63
2021/04/11 11:31:17;;;;;;;2.97;1.55;;;;;;;;;;5091404;28;20024;-64
2021/04/11 11:34:02;;;;;;;4.82;2.03;;;;;;;;;;5091868;28;20104;-64
2021/04/11 11:36:28;;;;;;;2.00;1.83;;;;;;;;;;5098483;28;20019;-64
2021/04/11 11:39:02;;;;;;;2.65;1.80;;;;;;;;;;5092494;28;20031;-66
2021/04/11 11:41:47;;;;;;;2.60;2.28;;;;;;;;;;5092120;28;20390;-66
2021/04/11 11:44:17;;;;;;;2.72;1.60;;;;;;;;;;5091499;28;20547;-66
2021/04/11 11:46:48;;;;;;;1.80;1.50;;;;;;;;;;5091594;28;20448;-66
2021/04/11 11:49:21;;;;;;;1.90;1.70;;;;;;;;;;5094194;28;20032;-65
2021/04/11 11:51:47;;;;;;;1.80;1.70;;;;;;;;;;5092617;28;20048;-66
2021/04/11 11:54:18;;;;;;;2.47;1.75;;;;;;;;;;5095566;28;20024;-67
2021/04/11 11:56:46;;;;;;;2.78;1.90;;;;;;;;;;5095926;28;20144;-67
2021/04/11 11:59:39;;;;;;;1.75;1.63;;;;;;;;;;5107562;28;20032;-66
2021/04/11 12:02:09;;;;;;;1.83;1.40;;;;;;;;;;5095832;28;20115;-64
2021/04/11 12:04:48;;;;;;;2.30;1.80;;;;;;;;;;5116135;28;20109;-66
2021/04/11 12:07:33;;;;;;;2.00;1.60;;;;;;;;;;5094896;28;20038;-68
2021/04/11 12:10:06;;;;;;;1.60;1.40;;;;;;;;;;5076759;28;20383;-65
2021/04/11 12:12:35;;;;;;;1.70;1.58;;;;;;;;;;5085974;28;20031;-66
2021/04/11 12:15:01;;;;;;;1.65;1.55;;;;;;;;;;5098144;28;20028;-66
2021/04/11 12:17:53;;;;;;;1.75;1.40;;;;;;;;;;5095696;28;20031;-68
2021/04/11 12:20:19;;;;;;;1.98;1.50;;;;;;;;;;5082088;28;20044;-68
2021/04/11 12:22:52;;;;;;;1.50;1.40;;;;;;;;;;5094639;28;20502;-66
2021/04/11 12:25:20;;;;;;;1.38;1.30;;;;;;;;;;5095836;28;20056;-66
2021/04/11 12:27:47;;;;;;;1.70;1.60;;;;;;;;;;5095175;28;20497;-65
2021/04/11 12:30:16;;;;;;;4.60;1.95;;;;;;;;;;5081357;28;20039;-65
2021/04/11 12:33:04;;;;;;;2.90;1.75;;;;;;;;;;5096213;28;20020;-65
2021/04/11 12:35:34;;;;;;;3.72;1.80;;;;;;;;;;5094913;28;20024;-67
2021/04/11 12:38:12;;;;;;;2.35;1.73;;;;;;;;;;5094699;28;20024;-69
2021/04/11 12:40:42;;;;;;;4.85;3.13;;;;;;;;;;5097488;28;20019;-65
2021/04/11 12:43:08;;;;;;;3.55;1.85;;;;;;;;;;5098399;28;20024;-68
2021/04/11 12:45:53;;;;;;;1.52;1.42;;;;;;;;;;5094950;28;20482;-66
2021/04/11 12:48:31;;;;;;;2.03;1.93;;;;;;;;;;5097514;28;20020;-65
2021/04/11 12:51:00;;;;;;;2.42;2.08;;;;;;;;;;5095887;28;20928;-66
2021/04/11 12:53:29;;;;;;;2.70;1.90;;;;;;;;;;5096317;28;20364;-65
2021/04/11 12:55:56;;;;;;;4.93;2.90;;;;;;;;;;5094250;28;20494;-67
2021/04/11 12:58:30;;;;;;;2.13;1.92;;;;;;;;;;5095869;28;20038;-67
2021/04/11 13:01:08;;;;;;;2.80;2.20;;;;;;;;;;5094463;28;20026;-68
2021/04/11 13:03:40;;;;;;;2.53;1.60;;;;;;;;;;5096334;28;20032;-65
2021/04/11 13:06:16;;;;;;;3.00;1.90;;;;;;;;;;5093873;28;20044;-68
2021/04/11 13:08:50;;;;;;;2.50;1.90;;;;;;;;;;5096666;28;20028;-66
2021/04/11 13:11:20;;;;;;;1.73;1.60;;;;;;;;;;5095594;28;20016;-66
2021/04/11 13:14:04;;;;;;;3.78;2.08;;;;;;;;;;5084517;28;20020;-68
2021/04/11 13:16:33;;;;;;;2.70;2.07;;;;;;;;;;5096327;28;20020;-67
2021/04/11 13:19:03;;;;;;;2.10;1.90;;;;;;;;;;5096401;28;20277;-68
2021/04/11 13:21:31;;;;;;;1.70;1.60;;;;;;;;;;5093623;28;20077;-67
2021/04/11 13:24:01;;;;;;;3.47;2.30;;;;;;;;;;5093996;28;20036;-67
2021/04/11 13:26:34;;;;;;;4.45;2.40;;;;;;;;;;5089221;28;20078;-66
2021/04/11 13:29:03;;;;;;;3.03;1.70;;;;;;;;;;5093113;28;20017;-67
2021/04/11 13:31:58;;;;;;;1.52;1.42;;;;;;;;;;5093876;28;20020;-64
2021/04/11 13:34:24;;;;;;;3.13;1.70;;;;;;;;;;5021281;28;20053;-67
2021/04/11 13:36:50;;;;;;;2.30;1.92;;;;;;;;;;5094325;28;20741;-66
2021/04/11 13:39:22;;;;;;;2.40;1.70;;;;;;;;;;5097140;28;20032;-67
2021/04/11 13:41:51;;;;;;;2.42;1.77;;;;;;;;;;5093292;28;20425;-67
2021/04/11 13:44:40;;;;;;;2.55;2.13;;;;;;;;;;5095725;28;20024;-66
2021/04/11 13:47:21;;;;;;;4.40;2.40;;;;;;;;;;5095470;28;20028;-66
2021/04/11 13:49:50;;;;;;;2.33;2.10;;;;;;;;;;5111720;28;20134;-66
2021/04/11 13:52:37;;;;;;;3.92;2.60;;;;;;;;;;5110638;28;20039;-66
2021/04/11 13:55:19;;;;;;;2.55;2.20;;;;;;;;;;5095707;28;20074;-65
2021/04/11 13:57:45;;;;;;;2.60;2.00;;;;;;;;;;5094882;28;20028;-66
2021/04/11 14:00:28;;;;;;;2.28;2.03;;;;;;;;;;5093455;28;20023;-65
2021/04/11 14:03:07;;;;;;;2.50;2.30;;;;;;;;;;5094824;28;20544;-65
2021/04/11 14:05:34;;;;;;;2.30;2.10;;;;;;;;;;5093716;28;20047;-65
2021/04/11 14:08:06;;;;;;;4.25;2.20;;;;;;;;;;5093324;28;20081;-68
2021/04/11 14:10:40;;;;;;;2.85;2.10;;;;;;;;;;5092870;28;20103;-67
2021/04/11 14:13:12;;;;;;;4.55;2.22;;;;;;;;;;5095695;28;20051;-68
2021/04/11 14:15:46;;;;;;;2.30;2.10;;;;;;;;;;5106603;28;20059;-69
2021/04/11 14:18:15;;;;;;;3.42;2.13;;;;;;;;;;5101881;28;20032;-66
2021/04/11 14:20:47;;;;;;;2.38;2.00;;;;;;;;;;5115770;28;20084;-65
2021/04/11 14:23:32;;;;;;;6.07;2.00;;;;;;;;;;5096549;28;20081;-68
2021/04/11 14:26:17;;;;;;;2.17;1.98;;;;;;;;;;5094456;28;20087;-65
2021/04/11 14:28:54;;;;;;;2.40;2.08;;;;;;;;;;5096424;28;20039;-68
2021/04/11 14:31:26;;;;;;;3.08;2.00;;;;;;;;;;5113168;28;20030;-66
2021/04/11 14:33:52;;;;;;;2.72;1.90;;;;;;;;;;5085310;28;20043;-67
2021/04/11 14:36:19;;;;;;;2.65;1.77;;;;;;;;;;5092576;28;20031;-65
2021/04/11 14:39:02;;;;;;;2.60;1.90;;;;;;;;;;5094631;28;20134;-67
2021/04/11 14:41:36;;;;;;;2.88;2.40;;;;;;;;;;5093091;28;20028;-66
2021/04/11 14:44:02;;;;;;;2.47;2.03;;;;;;;;;;5096098;28;20389;-66
2021/04/11 14:46:35;;;;;;;2.13;1.92;;;;;;;;;;5093253;28;20032;-65
2021/04/11 14:49:09;;;;;;;2.70;2.10;;;;;;;;;;5092560;28;20024;-64
2021/04/11 14:51:44;;;;;;;5.30;2.90;;;;;;;;;;5092775;28;20020;-64
2021/04/11 14:54:10;;;;;;;;;;;;;;;;;;5093859;28;20020;-67
2021/04/11 14:56:43;;;;;;;3.55;2.40;;;;;;;;;;5092986;28;19908;-66
2021/04/11 14:59:10;;;;;;;2.97;2.63;;;;;;;;;;5092257;28;20495;-65
2021/04/11 15:01:44;;;;;;;3.33;2.72;;;;;;;;;;5092323;28;20063;-66
2021/04/11 15:04:13;;;;;;;12.85;3.15;;;;;;;;;;5075553;28;20055;-64
2021/04/11 15:06:44;;;;;;;8.27;4.57;;;;;;;;;;5084357;28;20039;-64
2021/04/11 15:09:16;;;;;;;7.07;5.82;;;;;;;;;;5092387;28;20024;-66
2021/04/11 15:11:47;;;;;;;5.00;4.50;;;;;;;;;;5091993;28;20028;-67
2021/04/11 15:14:16;;;;;;;9.95;5.70;;;;;;;;;;5093392;28;20028;-66
2021/04/11 15:16:45;;;;;;;16.95;11.32;;;;;;;;;;5091823;28;20024;-66